Terminal Aerodrome Forecast
Issued by NWS Melbourne, FL

Home | Current Version | Previous Version | Text Only | Print | Product List | Glossary On
Versions: 1 2 3 4 5 6 7 8 9 10 11 12 13 14 15 16 17
000
FTUS42 KMLB 010100 AAA
TAFDAB
TAF AMD
KDAB 010120Z 0101/0124 VRB03KT P6SM VCSH SCT020 BKN080 OVC200
      TEMPO 0102/0103 3SM SHRA BKN025
     FM010330 00000KT P6SM FEW080 BKN250
     FM011400 20004KT P6SM SCT022 SCT060 SCT250
     FM011800 13009KT P6SM VCTS BKN030CB=

USA.gov is the U.S. government's official web portal to all federal, state and local government web resources and services.